Time,TemperatureF,DewpointF,PressureIn,WindDirection,WindDirectionDegrees,WindSpeedMPH,WindSpeedGustMPH,Humidity,HourlyPrecipIn,Conditions,Clouds,dailyrainin,SoftwareType,DateUTC
2013-06-24 00:01:00,70.2,67.8,30.11,NNE,22,4.0,4.0,92,0.00,,,0.00,VWS V14.01,2013-06-24 10:01:00,
2013-06-24 00:07:00,70.3,67.9,30.10,NNE,32,2.0,7.0,92,0.00,,,0.00,VWS V14.01,2013-06-24 10:07:00,
2013-06-24 00:12:00,70.4,68.0,30.10,North,9,6.0,6.0,92,0.00,,,0.00,VWS V14.01,2013-06-24 10:12:00,
2013-06-24 00:17:00,70.7,67.9,30.10,ENE,61,9.0,9.0,91,0.00,,,0.00,VWS V14.01,2013-06-24 10:17:00,
2013-06-24 00:22:00,70.8,68.1,30.10,NE,38,10.0,10.0,91,0.00,,,0.00,VWS V14.01,2013-06-24 10:22:00,
2013-06-24 00:28:00,70.9,68.2,30.09,ESE,117,17.0,20.0,91,0.00,,,0.00,VWS V14.01,2013-06-24 10:28:00,
2013-06-24 00:33:00,70.1,67.7,30.10,ESE,116,8.0,8.0,92,0.00,,,0.00,VWS V14.01,2013-06-24 10:33:00,
2013-06-24 00:38:00,69.4,67.0,30.10,ENE,76,8.0,11.0,92,0.00,,,0.00,VWS V14.01,2013-06-24 10:38:00,
2013-06-24 00:43:00,69.0,66.6,30.09,ENE,59,4.0,8.0,92,0.00,,,0.00,VWS V14.01,2013-06-24 10:43:00,
2013-06-24 00:48:00,68.9,66.5,30.09,NNE,33,3.0,5.0,92,0.00,,,0.00,VWS V14.01,2013-06-24 10:48:00,
2013-06-24 00:54:00,68.9,66.5,30.09,North,10,5.0,6.0,92,0.00,,,0.00,VWS V14.01,2013-06-24 10:54:00,
2013-06-24 00:59:00,68.8,66.4,30.08,NNE,26,7.0,7.0,92,0.00,,,0.00,VWS V14.01,2013-06-24 10:59:00,
2013-06-24 01:04:00,68.8,66.1,30.08,NNE,28,2.0,6.0,91,0.00,,,0.00,VWS V14.01,2013-06-24 11:04:00,
2013-06-24 01:09:00,69.1,65.7,30.08,North,5,10.0,12.0,89,0.00,,,0.00,VWS V14.01,2013-06-24 11:09:00,
2013-06-24 01:14:00,69.8,65.8,30.08,NNE,31,3.0,5.0,87,0.00,,,0.00,VWS V14.01,2013-06-24 11:14:00,
2013-06-24 01:19:00,70.1,65.7,30.08,NE,46,6.0,9.0,86,0.00,,,0.00,VWS V14.01,2013-06-24 11:19:00,
2013-06-24 01:24:00,70.2,65.5,30.08,NNE,12,9.0,10.0,85,0.00,,,0.00,VWS V14.01,2013-06-24 11:24:00,
2013-06-24 01:30:00,70.3,64.9,30.07,WNW,290,11.0,14.0,83,0.00,,,0.00,VWS V14.01,2013-06-24 11:30:00,
2013-06-24 01:35:00,70.7,64.6,30.08,NNE,21,8.0,9.0,81,0.00,,,0.00,VWS V14.01,2013-06-24 11:35:00,
2013-06-24 01:40:00,71.1,64.3,30.07,NNE,19,8.0,11.0,79,0.00,,,0.00,VWS V14.01,2013-06-24 11:40:00,
2013-06-24 01:45:00,71.4,64.6,30.07,North,6,4.0,4.0,79,0.00,,,0.00,VWS V14.01,2013-06-24 11:45:00,
2013-06-24 01:50:00,71.3,64.1,30.07,ENE,68,8.0,8.0,78,0.00,,,0.00,VWS V14.01,2013-06-24 11:50:00,
2013-06-24 01:55:00,71.3,64.5,30.07,NNE,12,6.0,6.0,79,0.00,,,0.00,VWS V14.01,2013-06-24 11:55:00,
2013-06-24 02:00:00,71.2,64.4,30.07,NNE,31,5.0,6.0,79,0.00,,,0.00,VWS V14.01,2013-06-24 12:00:00,
2013-06-24 02:05:00,71.2,64.4,30.07,NE,38,1.0,4.0,79,0.00,,,0.00,VWS V14.01,2013-06-24 12:05:00,
2013-06-24 02:11:00,71.4,64.2,30.07,NW,324,11.0,11.0,78,0.00,,,0.00,VWS V14.01,2013-06-24 12:11:00,
2013-06-24 02:16:00,71.6,64.0,30.07,NE,45,15.0,16.0,77,0.00,,,0.00,VWS V14.01,2013-06-24 12:16:00,
2013-06-24 02:21:00,71.6,64.0,30.07,NE,39,5.0,5.0,77,0.00,,,0.00,VWS V14.01,2013-06-24 12:21:00,
2013-06-24 02:27:00,71.6,64.4,30.07,NNE,23,16.0,16.0,78,0.00,,,0.00,VWS V14.01,2013-06-24 12:27:00,
2013-06-24 02:32:00,71.6,64.4,30.07,NE,53,7.0,7.0,78,0.00,,,0.00,VWS V14.01,2013-06-24 12:32:00,
2013-06-24 02:37:00,71.4,64.6,30.07,NE,52,7.0,12.0,79,0.00,,,0.00,VWS V14.01,2013-06-24 12:37:00,
2013-06-24 02:42:00,71.2,64.7,30.07,ENE,68,5.0,7.0,80,0.00,,,0.00,VWS V14.01,2013-06-24 12:42:00,
2013-06-24 02:47:00,70.9,64.8,30.07,NNE,22,10.0,11.0,81,0.00,,,0.00,VWS V14.01,2013-06-24 12:47:00,
2013-06-24 02:52:00,70.6,64.8,30.07,NE,49,2.0,3.0,82,0.00,,,0.00,VWS V14.01,2013-06-24 12:52:00,
2013-06-24 02:57:00,70.5,65.1,30.06,NE,39,7.0,9.0,83,0.00,,,0.00,VWS V14.01,2013-06-24 12:57:00,
2013-06-24 03:02:00,70.5,65.1,30.06,NNE,21,9.0,9.0,83,0.00,,,0.00,VWS V14.01,2013-06-24 13:02:00,
2013-06-24 03:07:00,70.5,64.8,30.06,North,10,5.0,5.0,82,0.00,,,0.00,VWS V14.01,2013-06-24 13:07:00,
2013-06-24 03:12:00,70.5,64.8,30.06,North,357,6.0,12.0,82,0.00,,,0.00,VWS V14.01,2013-06-24 13:12:00,
2013-06-24 03:17:00,70.7,64.6,30.06,NNE,19,6.0,8.0,81,0.00,,,0.00,VWS V14.01,2013-06-24 13:17:00,
2013-06-24 03:22:00,70.8,64.7,30.06,NE,48,8.0,8.0,81,0.00,,,0.00,VWS V14.01,2013-06-24 13:22:00,
2013-06-24 03:27:00,71.0,64.2,30.06,NNE,21,13.0,14.0,79,0.00,,,0.00,VWS V14.01,2013-06-24 13:27:00,
2013-06-24 03:33:00,71.5,63.5,30.06,NNE,26,6.0,7.0,76,0.00,,,0.00,VWS V14.01,2013-06-24 13:33:00,
2013-06-24 03:38:00,71.5,63.2,30.06,ENE,71,2.0,2.0,75,0.00,,,0.00,VWS V14.01,2013-06-24 13:38:00,
2013-06-24 03:43:00,71.6,63.3,30.06,NNW,337,4.0,5.0,75,0.00,,,0.00,VWS V14.01,2013-06-24 13:43:00,
2013-06-24 03:48:00,71.8,63.5,30.06,ENE,71,0.0,0.0,75,0.00,,,0.00,VWS V14.01,2013-06-24 13:48:00,
2013-06-24 03:53:00,71.7,63.7,30.06,NE,37,11.0,11.0,76,0.00,,,0.00,VWS V14.01,2013-06-24 13:53:00,
2013-06-24 03:58:00,71.7,63.7,30.06,NE,53,5.0,7.0,76,0.00,,,0.00,VWS V14.01,2013-06-24 13:58:00,
2013-06-24 04:03:00,71.6,64.0,30.06,NNE,23,7.0,7.0,77,0.00,,,0.00,VWS V14.01,2013-06-24 14:03:00,
2013-06-24 04:08:00,71.6,64.0,30.06,North,2,13.0,19.0,77,0.00,,,0.00,VWS V14.01,2013-06-24 14:08:00,
2013-06-24 04:13:00,71.5,63.9,30.06,NNE,22,5.0,6.0,77,0.00,,,0.00,VWS V14.01,2013-06-24 14:13:00,
2013-06-24 04:18:00,71.4,63.8,30.06,NNE,14,11.0,11.0,77,0.00,,,0.00,VWS V14.01,2013-06-24 14:18:00,
2013-06-24 04:23:00,71.7,63.7,30.06,East,95,4.0,6.0,76,0.00,,,0.00,VWS V14.01,2013-06-24 14:23:00,
2013-06-24 04:28:00,71.5,64.7,30.06,NNE,28,8.0,9.0,79,0.00,,,0.00,VWS V14.01,2013-06-24 14:28:00,
2013-06-24 04:33:00,71.3,64.5,30.06,NE,50,8.0,8.0,79,0.00,,,0.00,VWS V14.01,2013-06-24 14:33:00,
2013-06-24 04:38:00,71.2,64.7,30.06,NNE,29,9.0,11.0,80,0.00,,,0.00,VWS V14.01,2013-06-24 14:38:00,
2013-06-24 04:43:00,71.1,64.3,30.06,NE,42,10.0,11.0,79,0.00,,,0.00,VWS V14.01,2013-06-24 14:43:00,
2013-06-24 04:49:00,71.1,63.9,30.06,NE,41,8.0,8.0,78,0.00,,,0.00,VWS V14.01,2013-06-24 14:49:00,
2013-06-24 04:54:00,71.1,64.3,30.06,NNE,31,4.0,7.0,79,0.00,,,0.00,VWS V14.01,2013-06-24 14:54:00,
2013-06-24 04:59:00,71.1,63.9,30.06,NNE,19,14.0,14.0,78,0.00,,,0.00,VWS V14.01,2013-06-24 14:59:00,
2013-06-24 05:04:00,71.4,62.7,30.06,NE,40,8.0,9.0,74,0.00,,,0.00,VWS V14.01,2013-06-24 15:04:00,
2013-06-24 05:09:00,71.4,61.9,30.06,NE,38,11.0,11.0,72,0.00,,,0.00,VWS V14.01,2013-06-24 15:09:00,
2013-06-24 05:15:00,71.8,61.9,30.06,NE,54,7.0,11.0,71,0.00,,,0.00,VWS V14.01,2013-06-24 15:15:00,
2013-06-24 05:20:00,71.9,62.4,30.07,NW,323,4.0,8.0,72,0.00,,,0.00,VWS V14.01,2013-06-24 15:20:00,
2013-06-24 05:25:00,71.9,63.2,30.06,NE,55,6.0,6.0,74,0.00,,,0.00,VWS V14.01,2013-06-24 15:25:00,
2013-06-24 05:30:00,71.8,63.8,30.07,NNE,25,7.0,8.0,76,0.00,,,0.00,VWS V14.01,2013-06-24 15:30:00,
2013-06-24 05:36:00,71.6,64.4,30.07,North,8,4.0,4.0,78,0.00,,,0.00,VWS V14.01,2013-06-24 15:36:00,
2013-06-24 05:41:00,71.5,64.3,30.07,NNE,23,5.0,8.0,78,0.00,,,0.00,VWS V14.01,2013-06-24 15:41:00,
2013-06-24 05:46:00,71.4,64.6,30.07,NNE,12,13.0,13.0,79,0.00,,,0.00,VWS V14.01,2013-06-24 15:46:00,
2013-06-24 05:52:00,71.3,64.5,30.07,NNE,14,10.0,10.0,79,0.00,,,0.00,VWS V14.01,2013-06-24 15:52:00,
2013-06-24 05:57:00,71.4,64.6,30.07,NNE,14,9.0,10.0,79,0.00,,,0.00,VWS V14.01,2013-06-24 15:57:00,
2013-06-24 06:02:00,71.4,64.6,30.07,NE,52,17.0,17.0,79,0.00,,,0.00,VWS V14.01,2013-06-24 16:02:00,
2013-06-24 06:07:00,71.5,64.3,30.07,NNE,30,10.0,15.0,78,0.00,,,0.00,VWS V14.01,2013-06-24 16:07:00,
2013-06-24 06:12:00,71.6,64.0,30.07,NE,42,14.0,14.0,77,0.00,,,0.00,VWS V14.01,2013-06-24 16:12:00,
2013-06-24 06:17:00,71.8,64.2,30.07,North,3,7.0,7.0,77,0.00,,,0.00,VWS V14.01,2013-06-24 16:17:00,
2013-06-24 06:22:00,71.8,64.2,30.07,NNE,27,9.0,12.0,77,0.00,,,0.00,VWS V14.01,2013-06-24 16:22:00,
2013-06-24 06:27:00,71.9,64.3,30.07,NNW,348,11.0,14.0,77,0.00,,,0.00,VWS V14.01,2013-06-24 16:27:00,
2013-06-24 06:32:00,72.1,64.1,30.07,NE,54,5.0,5.0,76,0.00,,,0.00,VWS V14.01,2013-06-24 16:32:00,
2013-06-24 06:37:00,72.4,64.0,30.08,NE,41,7.0,7.0,75,0.00,,,0.00,VWS V14.01,2013-06-24 16:37:00,
2013-06-24 06:42:00,72.7,64.3,30.08,NNE,33,6.0,8.0,75,0.00,,,0.00,VWS V14.01,2013-06-24 16:42:00,
2013-06-24 06:47:00,72.7,63.5,30.08,North,349,12.0,12.0,73,0.00,,,0.00,VWS V14.01,2013-06-24 16:47:00,
2013-06-24 06:52:00,72.8,62.9,30.08,NNE,16,12.0,14.0,71,0.00,,,0.00,VWS V14.01,2013-06-24 16:52:00,
2013-06-24 06:57:00,73.4,63.0,30.08,East,91,7.0,7.0,70,0.00,,,0.00,VWS V14.01,2013-06-24 16:57:00,
2013-06-24 07:02:00,73.7,62.1,30.08,NNE,33,7.0,7.0,67,0.00,,,0.00,VWS V14.01,2013-06-24 17:02:00,
2013-06-24 07:07:00,73.7,61.7,30.08,NNE,27,7.0,10.0,66,0.00,,,0.00,VWS V14.01,2013-06-24 17:07:00,
2013-06-24 07:12:00,73.6,61.5,30.08,NNE,26,8.0,10.0,66,0.00,,,0.00,VWS V14.01,2013-06-24 17:12:00,
2013-06-24 07:17:00,73.6,61.5,30.08,NNE,29,6.0,7.0,66,0.00,,,0.00,VWS V14.01,2013-06-24 17:17:00,
2013-06-24 07:22:00,73.7,61.7,30.08,ENE,61,9.0,10.0,66,0.00,,,0.00,VWS V14.01,2013-06-24 17:22:00,
2013-06-24 07:28:00,73.8,63.0,30.08,NE,46,10.0,10.0,69,0.00,,,0.00,VWS V14.01,2013-06-24 17:28:00,
2013-06-24 07:33:00,73.9,63.1,30.09,ENE,61,7.0,9.0,69,0.00,,,0.00,VWS V14.01,2013-06-24 17:33:00,
2013-06-24 07:38:00,74.3,63.1,30.09,NNE,23,9.0,11.0,68,0.00,,,0.00,VWS V14.01,2013-06-24 17:38:00,
2013-06-24 07:43:00,74.7,63.5,30.08,NNE,29,16.0,16.0,68,0.00,,,0.00,VWS V14.01,2013-06-24 17:43:00,
2013-06-24 07:48:00,74.8,61.8,30.09,North,11,9.0,10.0,64,0.00,,,0.00,VWS V14.01,2013-06-24 17:48:00,
2013-06-24 07:53:00,74.6,62.5,30.09,NE,54,9.0,12.0,66,0.00,,,0.00,VWS V14.01,2013-06-24 17:53:00,
2013-06-24 07:58:00,74.6,62.5,30.09,NE,44,2.0,6.0,66,0.00,,,0.00,VWS V14.01,2013-06-24 17:58:00,
2013-06-24 08:04:00,75.1,62.5,30.09,NE,47,6.0,12.0,65,0.00,,,0.00,VWS V14.01,2013-06-24 18:04:00,
2013-06-24 08:09:00,75.6,62.1,30.09,NE,50,6.0,8.0,63,0.00,,,0.00,VWS V14.01,2013-06-24 18:09:00,
2013-06-24 08:14:00,75.2,61.8,30.09,NNE,19,9.0,9.0,63,0.00,,,0.00,VWS V14.01,2013-06-24 18:14:00,
2013-06-24 08:19:00,75.2,62.6,30.09,East,87,6.0,10.0,65,0.00,,,0.00,VWS V14.01,2013-06-24 18:19:00,
2013-06-24 08:24:00,75.3,64.0,30.09,NE,56,10.0,10.0,68,0.00,,,0.00,VWS V14.01,2013-06-24 18:24:00,
2013-06-24 08:29:00,75.2,65.2,30.09,East,90,8.0,8.0,71,0.00,,,0.00,VWS V14.01,2013-06-24 18:29:00,
2013-06-24 08:34:00,75.4,65.3,30.09,ENE,59,6.0,7.0,71,0.00,,,0.00,VWS V14.01,2013-06-24 18:34:00,
2013-06-24 08:39:00,75.3,64.0,30.09,East,99,12.0,14.0,68,0.00,,,0.00,VWS V14.01,2013-06-24 18:39:00,
2013-06-24 08:44:00,75.5,65.0,30.09,ENE,57,7.0,7.0,70,0.00,,,0.00,VWS V14.01,2013-06-24 18:44:00,
2013-06-24 08:49:00,75.4,64.9,30.09,NE,48,9.0,11.0,70,0.00,,,0.00,VWS V14.01,2013-06-24 18:49:00,
2013-06-24 08:55:00,75.5,65.0,30.09,ENE,78,9.0,12.0,70,0.00,,,0.00,VWS V14.01,2013-06-24 18:55:00,
2013-06-24 09:00:00,76.0,65.5,30.10,East,93,8.0,10.0,70,0.00,,,0.00,VWS V14.01,2013-06-24 19:00:00,
2013-06-24 09:05:00,76.5,65.2,30.10,ENE,62,10.0,13.0,68,0.00,,,0.00,VWS V14.01,2013-06-24 19:05:00,
2013-06-24 09:10:00,76.1,66.0,30.10,East,99,11.0,11.0,71,0.00,,,0.00,VWS V14.01,2013-06-24 19:10:00,
2013-06-24 09:16:00,76.1,66.8,30.10,ESE,103,14.0,15.0,73,0.00,,,0.00,VWS V14.01,2013-06-24 19:16:00,
2013-06-24 09:21:00,76.2,66.9,30.10,ENE,57,7.0,12.0,73,0.00,,,0.00,VWS V14.01,2013-06-24 19:21:00,
2013-06-24 09:26:00,76.2,66.9,30.10,East,86,9.0,11.0,73,0.00,,,0.00,VWS V14.01,2013-06-24 19:26:00,
2013-06-24 09:31:00,76.2,66.9,30.10,ESE,115,12.0,13.0,73,0.00,,,0.00,VWS V14.01,2013-06-24 19:31:00,
2013-06-24 09:36:00,76.2,66.5,30.10,ENE,73,9.0,15.0,72,0.00,,,0.00,VWS V14.01,2013-06-24 19:36:00,
2013-06-24 09:41:00,75.7,66.4,30.10,ESE,104,11.0,11.0,73,0.00,,,0.00,VWS V14.01,2013-06-24 19:41:00,
2013-06-24 09:46:00,75.9,67.0,30.10,East,84,12.0,15.0,74,0.00,,,0.00,VWS V14.01,2013-06-24 19:46:00,
2013-06-24 09:51:00,75.5,66.6,30.10,East,87,16.0,16.0,74,0.00,,,0.00,VWS V14.01,2013-06-24 19:51:00,
2013-06-24 09:56:00,75.6,67.1,30.09,NE,41,16.0,16.0,75,0.00,,,0.00,VWS V14.01,2013-06-24 19:56:00,
2013-06-24 10:01:00,76.1,68.0,30.09,ENE,64,12.0,14.0,76,0.00,,,0.00,VWS V14.01,2013-06-24 20:01:00,
2013-06-24 10:06:00,76.2,67.3,30.09,East,80,8.0,13.0,74,0.00,,,0.00,VWS V14.01,2013-06-24 20:06:00,
2013-06-24 10:11:00,76.5,67.2,30.10,NE,48,8.0,12.0,73,0.00,,,0.00,VWS V14.01,2013-06-24 20:11:00,
2013-06-24 10:16:00,76.4,67.1,30.09,ENE,78,12.0,13.0,73,0.00,,,0.00,VWS V14.01,2013-06-24 20:16:00,
2013-06-24 10:22:00,76.6,68.5,30.09,ENE,62,11.0,12.0,76,0.00,,,0.00,VWS V14.01,2013-06-24 20:22:00,
2013-06-24 10:27:00,77.0,67.7,30.09,ESE,106,10.0,14.0,73,0.00,,,0.00,VWS V14.01,2013-06-24 20:27:00,
2013-06-24 10:32:00,76.5,66.4,30.10,East,91,14.0,14.0,71,0.00,,,0.00,VWS V14.01,2013-06-24 20:32:00,
2013-06-24 10:37:00,76.4,65.1,30.09,ENE,59,11.0,11.0,68,0.00,,,0.00,VWS V14.01,2013-06-24 20:37:00,
2013-06-24 10:42:00,77.0,65.6,30.09,ENE,67,13.0,17.0,68,0.00,,,0.00,VWS V14.01,2013-06-24 20:42:00,
2013-06-24 10:47:00,76.5,65.6,30.09,NE,44,19.0,19.0,69,0.00,,,0.00,VWS V14.01,2013-06-24 20:47:00,
2013-06-24 10:52:00,76.2,66.1,30.09,ENE,66,16.0,18.0,71,0.00,,,0.00,VWS V14.01,2013-06-24 20:52:00,
2013-06-24 10:58:00,76.3,65.8,30.10,ENE,61,14.0,14.0,70,0.00,,,0.00,VWS V14.01,2013-06-24 20:58:00,
2013-06-24 11:03:00,76.6,66.1,30.10,ENE,66,15.0,15.0,70,0.00,,,0.00,VWS V14.01,2013-06-24 21:03:00,
2013-06-24 11:08:00,77.0,66.5,30.09,NE,52,10.0,13.0,70,0.00,,,0.00,VWS V14.01,2013-06-24 21:08:00,
2013-06-24 11:13:00,76.8,65.4,30.09,East,84,11.0,17.0,68,0.00,,,0.00,VWS V14.01,2013-06-24 21:13:00,
2013-06-24 11:18:00,76.5,66.4,30.09,ENE,64,14.0,16.0,71,0.00,,,0.00,VWS V14.01,2013-06-24 21:18:00,
2013-06-24 11:24:00,76.4,66.3,30.09,East,90,18.0,18.0,71,0.00,,,0.00,VWS V14.01,2013-06-24 21:24:00,
2013-06-24 11:29:00,76.8,67.1,30.09,East,99,16.0,19.0,72,0.00,,,0.00,VWS V14.01,2013-06-24 21:29:00,
2013-06-24 11:34:00,76.5,66.4,30.09,East,100,15.0,15.0,71,0.00,,,0.00,VWS V14.01,2013-06-24 21:34:00,
2013-06-24 11:39:00,76.6,66.5,30.09,NE,54,18.0,18.0,71,0.00,,,0.00,VWS V14.01,2013-06-24 21:39:00,
2013-06-24 11:44:00,76.3,66.6,30.09,ENE,66,10.0,14.0,72,0.00,,,0.00,VWS V14.01,2013-06-24 21:44:00,
2013-06-24 11:49:00,76.6,65.7,30.09,NE,52,8.0,11.0,69,0.00,,,0.00,VWS V14.01,2013-06-24 21:49:00,
2013-06-24 11:54:00,77.1,67.0,30.09,NE,53,10.0,13.0,71,0.00,,,0.00,VWS V14.01,2013-06-24 21:54:00,
2013-06-24 12:00:00,77.9,65.6,30.09,ESE,104,13.0,14.0,66,0.00,,,0.00,VWS V14.01,2013-06-24 22:00:00,
2013-06-24 12:05:00,77.2,65.0,30.09,ESE,113,14.0,16.0,66,0.00,,,0.00,VWS V14.01,2013-06-24 22:05:00,
2013-06-24 12:10:00,78.2,65.5,30.09,ESE,111,14.0,14.0,65,0.00,,,0.00,VWS V14.01,2013-06-24 22:10:00,
2013-06-24 12:15:00,77.9,66.1,30.08,East,90,15.0,18.0,67,0.00,,,0.00,VWS V14.01,2013-06-24 22:15:00,
2013-06-24 12:20:00,77.2,65.8,30.08,ENE,65,10.0,10.0,68,0.00,,,0.00,VWS V14.01,2013-06-24 22:20:00,
2013-06-24 12:27:00,78.2,65.9,30.08,East,90,12.0,13.0,66,0.00,,,0.00,VWS V14.01,2013-06-24 22:27:00,
2013-06-24 12:32:00,78.5,66.6,30.08,NE,55,20.0,20.0,67,0.00,,,0.00,VWS V14.01,2013-06-24 22:32:00,
2013-06-24 12:37:00,77.9,66.9,30.08,NE,49,11.0,12.0,69,0.00,,,0.00,VWS V14.01,2013-06-24 22:37:00,
2013-06-24 12:42:00,77.9,66.5,30.07,East,92,9.0,15.0,68,0.00,,,0.00,VWS V14.01,2013-06-24 22:42:00,
2013-06-24 12:47:00,77.5,67.4,30.07,NE,56,16.0,16.0,71,0.00,,,0.00,VWS V14.01,2013-06-24 22:47:00,
2013-06-24 12:53:00,77.6,67.9,30.07,East,83,13.0,13.0,72,0.00,,,0.00,VWS V14.01,2013-06-24 22:53:00,
2013-06-24 12:58:00,77.4,67.7,30.07,East,95,12.0,14.0,72,0.00,,,0.00,VWS V14.01,2013-06-24 22:58:00,
2013-06-24 13:03:00,76.9,66.8,30.07,NE,49,20.0,20.0,71,0.00,,,0.00,VWS V14.01,2013-06-24 23:03:00,
2013-06-24 13:08:00,77.0,66.5,30.08,NE,52,20.0,20.0,70,0.00,,,0.00,VWS V14.01,2013-06-24 23:08:00,
2013-06-24 13:13:00,77.3,66.8,30.07,ESE,102,9.0,10.0,70,0.00,,,0.00,VWS V14.01,2013-06-24 23:13:00,
2013-06-24 13:18:00,77.8,67.7,30.07,ESE,104,13.0,15.0,71,0.00,,,0.00,VWS V14.01,2013-06-24 23:18:00,
2013-06-24 13:24:00,77.1,66.6,30.06,NNE,26,14.0,18.0,70,0.00,,,0.00,VWS V14.01,2013-06-24 23:24:00,
2013-06-24 13:29:00,76.9,66.8,30.07,East,99,10.0,13.0,71,0.00,,,0.00,VWS V14.01,2013-06-24 23:29:00,
2013-06-24 13:34:00,76.8,66.3,30.07,ENE,64,17.0,17.0,70,0.00,,,0.00,VWS V14.01,2013-06-24 23:34:00,
2013-06-24 13:39:00,77.0,66.5,30.06,ESE,106,19.0,21.0,70,0.00,,,0.00,VWS V14.01,2013-06-24 23:39:00,
2013-06-24 13:44:00,76.8,66.7,30.06,SE,124,14.0,15.0,71,0.00,,,0.00,VWS V14.01,2013-06-24 23:44:00,
2013-06-24 13:49:00,77.5,66.5,30.06,East,97,12.0,16.0,69,0.00,,,0.00,VWS V14.01,2013-06-24 23:49:00,
2013-06-24 13:54:00,77.7,66.3,30.06,NE,50,17.0,18.0,68,0.00,,,0.00,VWS V14.01,2013-06-24 23:54:00,
2013-06-24 13:59:00,77.0,66.1,30.06,ESE,102,16.0,16.0,69,0.00,,,0.00,VWS V14.01,2013-06-24 23:59:00,
2013-06-24 14:05:00,77.4,66.0,30.06,ENE,73,11.0,13.0,68,0.00,,,0.00,VWS V14.01,2013-06-25 00:05:00,
2013-06-24 14:10:00,77.0,65.6,30.05,NE,54,10.0,12.0,68,0.00,,,0.00,VWS V14.01,2013-06-25 00:10:00,
2013-06-24 14:15:00,76.4,66.3,30.06,NE,52,13.0,14.0,71,0.00,,,0.00,VWS V14.01,2013-06-25 00:15:00,
2013-06-24 14:20:00,75.9,65.8,30.06,ENE,70,16.0,17.0,71,0.00,,,0.00,VWS V14.01,2013-06-25 00:20:00,
2013-06-24 14:25:00,75.7,66.0,30.06,NE,52,15.0,15.0,72,0.00,,,0.00,VWS V14.01,2013-06-25 00:25:00,
2013-06-24 14:30:00,75.8,66.1,30.05,East,100,10.0,10.0,72,0.00,,,0.00,VWS V14.01,2013-06-25 00:30:00,
2013-06-24 14:35:00,75.2,65.6,30.06,ENE,70,12.0,12.0,72,0.00,,,0.00,VWS V14.01,2013-06-25 00:35:00,
2013-06-24 14:40:00,74.9,65.7,30.06,East,91,11.0,12.0,73,0.00,,,0.00,VWS V14.01,2013-06-25 00:40:00,
2013-06-24 14:45:00,74.8,66.0,30.06,ESE,102,11.0,11.0,74,0.00,,,0.00,VWS V14.01,2013-06-25 00:45:00,
2013-06-24 14:50:00,74.7,66.3,30.06,NE,52,18.0,18.0,75,0.00,,,0.00,VWS V14.01,2013-06-25 00:50:00,
2013-06-24 14:55:00,74.7,66.3,30.06,ENE,62,11.0,11.0,75,0.00,,,0.00,VWS V14.01,2013-06-25 00:55:00,
2013-06-24 15:01:00,75.5,67.0,30.06,East,99,9.0,10.0,75,0.00,,,0.00,VWS V14.01,2013-06-25 01:01:00,
2013-06-24 15:06:00,76.3,67.4,30.05,ENE,57,14.0,14.0,74,0.00,,,0.00,VWS V14.01,2013-06-25 01:06:00,
2013-06-24 15:11:00,75.5,67.4,30.05,East,90,11.0,11.0,76,0.00,,,0.00,VWS V14.01,2013-06-25 01:11:00,
2013-06-24 15:16:00,75.1,67.4,30.05,ENE,74,17.0,17.0,77,0.00,,,0.00,VWS V14.01,2013-06-25 01:16:00,
2013-06-24 15:21:00,74.6,67.3,30.05,East,98,9.0,9.0,78,0.00,,,0.00,VWS V14.01,2013-06-25 01:21:00,
2013-06-24 15:26:00,74.6,67.7,30.05,East,99,11.0,14.0,79,0.00,,,0.00,VWS V14.01,2013-06-25 01:26:00,
2013-06-24 15:32:00,74.6,67.3,30.04,ESE,106,13.0,13.0,78,0.00,,,0.00,VWS V14.01,2013-06-25 01:32:00,
2013-06-24 15:37:00,74.4,67.1,30.05,East,95,16.0,16.0,78,0.00,,,0.00,VWS V14.01,2013-06-25 01:37:00,
2013-06-24 15:42:00,74.1,67.2,30.05,NE,51,9.0,12.0,79,0.00,,,0.00,VWS V14.01,2013-06-25 01:42:00,
2013-06-24 15:48:00,74.0,67.4,30.05,ENE,57,15.0,18.0,80,0.00,,,0.00,VWS V14.01,2013-06-25 01:48:00,
2013-06-24 15:53:00,73.7,67.5,30.04,East,98,15.0,15.0,81,0.00,,,0.00,VWS V14.01,2013-06-25 01:53:00,
2013-06-24 15:58:00,73.4,67.2,30.04,East,99,16.0,16.0,81,0.00,,,0.00,VWS V14.01,2013-06-25 01:58:00,
2013-06-24 16:03:00,73.3,67.1,30.04,East,95,11.0,11.0,81,0.00,,,0.00,VWS V14.01,2013-06-25 02:03:00,
2013-06-24 16:08:00,73.3,67.5,30.04,East,83,10.0,10.0,82,0.00,,,0.00,VWS V14.01,2013-06-25 02:08:00,
2013-06-24 16:13:00,73.2,67.4,30.04,ENE,65,14.0,14.0,82,0.00,,,0.00,VWS V14.01,2013-06-25 02:13:00,
2013-06-24 16:18:00,73.1,67.6,30.04,ENE,60,12.0,12.0,83,0.00,,,0.00,VWS V14.01,2013-06-25 02:18:00,
2013-06-24 16:23:00,72.9,67.4,30.04,NE,45,16.0,16.0,83,0.00,,,0.00,VWS V14.01,2013-06-25 02:23:00,
2013-06-24 16:29:00,72.8,67.0,30.04,East,95,10.0,10.0,82,0.00,,,0.00,VWS V14.01,2013-06-25 02:29:00,
2013-06-24 16:34:00,72.9,67.1,30.04,NE,39,7.0,14.0,82,0.00,,,0.00,VWS V14.01,2013-06-25 02:34:00,
2013-06-24 16:39:00,72.8,66.6,30.04,ENE,76,15.0,15.0,81,0.00,,,0.00,VWS V14.01,2013-06-25 02:39:00,
2013-06-24 16:44:00,72.8,66.3,30.04,ENE,74,13.0,15.0,80,0.00,,,0.00,VWS V14.01,2013-06-25 02:44:00,
2013-06-24 16:49:00,72.7,66.5,30.04,ENE,70,12.0,13.0,81,0.00,,,0.00,VWS V14.01,2013-06-25 02:49:00,
2013-06-24 16:54:00,72.8,67.0,30.04,NE,47,12.0,12.0,82,0.00,,,0.00,VWS V14.01,2013-06-25 02:54:00,
2013-06-24 16:59:00,72.7,67.2,30.04,ENE,62,9.0,10.0,83,0.00,,,0.00,VWS V14.01,2013-06-25 02:59:00,
2013-06-24 17:05:00,72.6,67.2,30.04,ESE,104,12.0,12.0,83,0.00,,,0.00,VWS V14.01,2013-06-25 03:05:00,
2013-06-24 17:10:00,72.6,67.5,30.04,East,81,6.0,11.0,84,0.00,,,0.00,VWS V14.01,2013-06-25 03:10:00,
2013-06-24 17:15:00,72.5,67.4,30.04,ENE,70,14.0,14.0,84,0.00,,,0.00,VWS V14.01,2013-06-25 03:15:00,
2013-06-24 17:20:00,72.4,67.3,30.05,ENE,58,8.0,11.0,84,0.00,,,0.00,VWS V14.01,2013-06-25 03:20:00,
2013-06-24 17:25:00,72.4,67.3,30.05,ENE,63,10.0,14.0,84,0.00,,,0.00,VWS V14.01,2013-06-25 03:25:00,
2013-06-24 17:31:00,72.3,67.2,30.05,ENE,74,7.0,8.0,84,0.00,,,0.00,VWS V14.01,2013-06-25 03:31:00,
2013-06-24 17:37:00,72.2,67.1,30.05,ENE,78,11.0,14.0,84,0.00,,,0.00,VWS V14.01,2013-06-25 03:37:00,
2013-06-24 17:43:00,72.2,67.1,30.05,East,95,11.0,11.0,84,0.00,,,0.00,VWS V14.01,2013-06-25 03:43:00,
2013-06-24 17:48:00,72.2,67.1,30.06,ESE,104,10.0,11.0,84,0.00,,,0.00,VWS V14.01,2013-06-25 03:48:00,
2013-06-24 17:53:00,72.2,66.8,30.06,ENE,64,11.0,11.0,83,0.00,,,0.00,VWS V14.01,2013-06-25 03:53:00,
2013-06-24 17:58:00,72.2,66.8,30.06,ENE,65,11.0,13.0,83,0.00,,,0.00,VWS V14.01,2013-06-25 03:58:00,
2013-06-24 18:01:00,72.3,66.5,30.06,ENE,76,7.0,8.0,82,0.00,,,0.00,VWS V14.01,2013-06-25 04:01:00,
2013-06-24 18:03:00,72.3,66.5,30.06,ENE,64,8.0,10.0,82,0.00,,,0.00,VWS V14.01,2013-06-25 04:03:00,
2013-06-24 18:08:00,72.4,66.2,30.06,East,80,9.0,9.0,81,0.00,,,0.00,VWS V14.01,2013-06-25 04:08:00,
2013-06-24 18:14:00,72.4,65.9,30.05,ENE,75,13.0,14.0,80,0.00,,,0.00,VWS V14.01,2013-06-25 04:14:00,
2013-06-24 18:19:00,72.5,66.0,30.05,ENE,75,14.0,14.0,80,0.00,,,0.00,VWS V14.01,2013-06-25 04:19:00,
2013-06-24 18:24:00,72.7,66.5,30.06,ENE,78,8.0,9.0,81,0.00,,,0.00,VWS V14.01,2013-06-25 04:24:00,
2013-06-24 18:29:00,72.6,66.8,30.06,East,83,12.0,14.0,82,0.00,,,0.00,VWS V14.01,2013-06-25 04:29:00,
2013-06-24 18:34:00,72.5,66.7,30.06,East,96,8.0,10.0,82,0.00,,,0.00,VWS V14.01,2013-06-25 04:34:00,
2013-06-24 18:39:00,72.4,66.9,30.06,East,83,8.0,13.0,83,0.00,,,0.00,VWS V14.01,2013-06-25 04:39:00,
2013-06-24 18:44:00,72.4,67.3,30.06,ENE,65,8.0,9.0,84,0.00,,,0.00,VWS V14.01,2013-06-25 04:44:00,
2013-06-24 18:49:00,72.2,66.8,30.06,East,100,12.0,12.0,83,0.00,,,0.00,VWS V14.01,2013-06-25 04:49:00,
2013-06-24 18:54:00,72.2,67.1,30.07,NE,52,11.0,11.0,84,0.00,,,0.00,VWS V14.01,2013-06-25 04:54:00,
2013-06-24 18:59:00,72.1,67.0,30.07,ENE,78,11.0,12.0,84,0.00,,,0.00,VWS V14.01,2013-06-25 04:59:00,
2013-06-24 19:04:00,72.0,66.6,30.07,ENE,64,6.0,6.0,83,0.00,,,0.00,VWS V14.01,2013-06-25 05:04:00,
2013-06-24 19:09:00,72.1,66.7,30.07,East,94,9.0,9.0,83,0.00,,,0.00,VWS V14.01,2013-06-25 05:09:00,
2013-06-24 19:15:00,72.1,66.7,30.07,East,96,6.0,6.0,83,0.00,,,0.00,VWS V14.01,2013-06-25 05:15:00,
2013-06-24 19:20:00,72.1,67.0,30.07,East,92,10.0,10.0,84,0.00,,,0.00,VWS V14.01,2013-06-25 05:20:00,
2013-06-24 19:25:00,72.2,67.4,30.07,East,92,12.0,14.0,85,0.00,,,0.00,VWS V14.01,2013-06-25 05:25:00,
2013-06-24 19:30:00,72.1,68.0,30.07,ENE,70,9.0,10.0,87,0.00,,,0.00,VWS V14.01,2013-06-25 05:30:00,
2013-06-24 19:35:00,71.8,67.7,30.07,East,95,9.0,11.0,87,0.00,,,0.00,VWS V14.01,2013-06-25 05:35:00,
2013-06-24 19:40:00,71.6,67.5,30.07,ENE,70,7.0,11.0,87,0.00,,,0.00,VWS V14.01,2013-06-25 05:40:00,
2013-06-24 19:45:00,71.5,67.1,30.07,ENE,68,10.0,15.0,86,0.00,,,0.00,VWS V14.01,2013-06-25 05:45:00,
2013-06-24 19:50:00,71.5,67.4,30.07,East,95,9.0,11.0,87,0.00,,,0.00,VWS V14.01,2013-06-25 05:50:00,
2013-06-24 19:55:00,71.4,67.3,30.07,East,97,7.0,7.0,87,0.00,,,0.00,VWS V14.01,2013-06-25 05:55:00,
2013-06-24 20:00:00,71.2,67.1,30.07,ENE,65,13.0,13.0,87,0.00,,,0.00,VWS V14.01,2013-06-25 06:00:00,
2013-06-24 20:06:00,71.2,66.8,30.08,ENE,67,9.0,9.0,86,0.00,,,0.00,VWS V14.01,2013-06-25 06:06:00,
2013-06-24 20:11:00,71.2,66.8,30.08,East,90,9.0,9.0,86,0.00,,,0.00,VWS V14.01,2013-06-25 06:11:00,
2013-06-24 20:16:00,71.2,66.8,30.08,ENE,59,2.0,3.0,86,0.00,,,0.00,VWS V14.01,2013-06-25 06:16:00,
2013-06-24 20:21:00,71.2,66.5,30.08,ENE,77,13.0,13.0,85,0.00,,,0.00,VWS V14.01,2013-06-25 06:21:00,
2013-06-24 20:26:00,71.3,66.6,30.08,NE,52,6.0,8.0,85,0.00,,,0.00,VWS V14.01,2013-06-25 06:26:00,
2013-06-24 20:31:00,71.3,66.2,30.08,East,96,6.0,7.0,84,0.00,,,0.00,VWS V14.01,2013-06-25 06:31:00,
2013-06-24 20:36:00,71.2,65.8,30.08,East,92,7.0,7.0,83,0.00,,,0.00,VWS V14.01,2013-06-25 06:36:00,
2013-06-24 20:41:00,71.2,65.8,30.08,ESE,102,6.0,8.0,83,0.00,,,0.00,VWS V14.01,2013-06-25 06:41:00,
2013-06-24 20:46:00,71.2,65.8,30.08,ENE,64,6.0,8.0,83,0.00,,,0.00,VWS V14.01,2013-06-25 06:46:00,
2013-06-24 20:51:00,71.3,65.9,30.08,ENE,61,6.0,8.0,83,0.00,,,0.00,VWS V14.01,2013-06-25 06:51:00,
2013-06-24 20:56:00,71.3,65.9,30.08,ENE,61,4.0,5.0,83,0.00,,,0.00,VWS V14.01,2013-06-25 06:56:00,
2013-06-24 21:01:00,71.4,66.3,30.08,ENE,65,4.0,5.0,84,0.00,,,0.00,VWS V14.01,2013-06-25 07:01:00,
2013-06-24 21:06:00,71.6,67.5,30.08,NE,44,10.0,12.0,87,0.00,,,0.00,VWS V14.01,2013-06-25 07:06:00,
2013-06-24 21:11:00,71.4,68.0,30.08,East,99,11.0,13.0,89,0.00,,,0.00,VWS V14.01,2013-06-25 07:11:00,
2013-06-24 21:16:00,71.0,67.6,30.08,NE,54,8.0,8.0,89,0.00,,,0.00,VWS V14.01,2013-06-25 07:16:00,
2013-06-24 21:21:00,70.8,67.4,30.08,NE,54,10.0,10.0,89,0.00,,,0.00,VWS V14.01,2013-06-25 07:21:00,
2013-06-24 21:26:00,70.8,67.4,30.08,NE,40,7.0,10.0,89,0.00,,,0.00,VWS V14.01,2013-06-25 07:26:00,
2013-06-24 21:31:00,70.9,67.8,30.08,East,92,6.0,9.0,90,0.00,,,0.00,VWS V14.01,2013-06-25 07:31:00,
2013-06-24 21:36:00,70.9,67.8,30.08,East,87,12.0,12.0,90,0.00,,,0.00,VWS V14.01,2013-06-25 07:36:00,
2013-06-24 21:42:00,70.6,67.5,30.08,East,79,8.0,10.0,90,0.00,,,0.00,VWS V14.01,2013-06-25 07:42:00,
2013-06-24 21:47:00,70.3,67.2,30.08,East,79,6.0,8.0,90,0.00,,,0.00,VWS V14.01,2013-06-25 07:47:00,
2013-06-24 21:52:00,70.5,67.8,30.09,East,95,10.0,13.0,91,0.00,,,0.00,VWS V14.01,2013-06-25 07:52:00,
2013-06-24 21:57:00,70.3,67.6,30.09,NE,52,11.0,11.0,91,0.00,,,0.00,VWS V14.01,2013-06-25 07:57:00,
2013-06-24 22:02:00,69.8,67.4,30.09,East,95,8.0,8.0,92,0.00,,,0.00,VWS V14.01,2013-06-25 08:02:00,
2013-06-24 22:07:00,69.7,67.3,30.09,ENE,57,11.0,11.0,92,0.00,,,0.00,VWS V14.01,2013-06-25 08:07:00,
2013-06-24 22:12:00,69.6,67.2,30.09,NE,52,5.0,5.0,92,0.00,,,0.00,VWS V14.01,2013-06-25 08:12:00,
2013-06-24 22:17:00,69.3,66.9,30.09,NE,38,5.0,5.0,92,0.00,,,0.00,VWS V14.01,2013-06-25 08:17:00,
2013-06-24 22:22:00,69.1,66.7,30.09,ENE,66,3.0,6.0,92,0.00,,,0.00,VWS V14.01,2013-06-25 08:22:00,
2013-06-24 22:28:00,69.0,66.6,30.09,NE,49,8.0,9.0,92,0.00,,,0.00,VWS V14.01,2013-06-25 08:28:00,
2013-06-24 22:33:00,69.0,66.3,30.09,NNE,23,8.0,8.0,91,0.00,,,0.00,VWS V14.01,2013-06-25 08:33:00,
2013-06-24 22:38:00,69.1,66.4,30.09,NNE,27,8.0,8.0,91,0.00,,,0.00,VWS V14.01,2013-06-25 08:38:00,
2013-06-24 22:43:00,69.3,66.6,30.09,NE,47,4.0,4.0,91,0.00,,,0.00,VWS V14.01,2013-06-25 08:43:00,
2013-06-24 22:48:00,69.4,66.7,30.09,NNE,28,4.0,5.0,91,0.00,,,0.00,VWS V14.01,2013-06-25 08:48:00,
2013-06-24 22:53:00,69.5,66.8,30.09,ENE,70,7.0,7.0,91,0.00,,,0.00,VWS V14.01,2013-06-25 08:53:00,
2013-06-24 22:58:00,69.5,67.1,30.09,NNE,26,4.0,4.0,92,0.00,,,0.00,VWS V14.01,2013-06-25 08:58:00,
2013-06-24 23:03:00,69.5,67.1,30.08,ENE,64,3.0,4.0,92,0.00,,,0.00,VWS V14.01,2013-06-25 09:03:00,
2013-06-24 23:09:00,69.5,67.1,30.08,NNE,26,6.0,6.0,92,0.00,,,0.00,VWS V14.01,2013-06-25 09:09:00,
2013-06-24 23:14:00,69.6,67.2,30.08,NE,45,5.0,7.0,92,0.00,,,0.00,VWS V14.01,2013-06-25 09:14:00,
2013-06-24 23:19:00,69.5,67.4,30.08,NE,47,7.0,7.0,93,0.00,,,0.00,VWS V14.01,2013-06-25 09:19:00,
2013-06-24 23:24:00,69.5,67.1,30.08,NE,52,8.0,11.0,92,0.00,,,0.00,VWS V14.01,2013-06-25 09:24:00,
2013-06-24 23:29:00,69.5,67.1,30.08,NE,42,7.0,7.0,92,0.00,,,0.00,VWS V14.01,2013-06-25 09:29:00,
2013-06-24 23:34:00,69.7,67.3,30.08,NNE,31,5.0,6.0,92,0.00,,,0.00,VWS V14.01,2013-06-25 09:34:00,
2013-06-24 23:39:00,69.9,67.8,30.07,East,88,6.0,7.0,93,0.00,,,0.00,VWS V14.01,2013-06-25 09:39:00,
2013-06-24 23:44:00,69.9,67.8,30.07,NNE,33,7.0,8.0,93,0.00,,,0.00,VWS V14.01,2013-06-25 09:44:00,
2013-06-24 23:49:00,70.0,67.9,30.07,NNE,32,5.0,5.0,93,0.00,,,0.00,VWS V14.01,2013-06-25 09:49:00,
2013-06-24 23:54:00,70.1,68.0,30.07,ENE,66,5.0,5.0,93,0.00,,,0.00,VWS V14.01,2013-06-25 09:54:00,
2013-06-24 23:59:00,70.2,68.1,30.07,NE,47,5.0,6.0,93,0.00,,,0.00,VWS V14.01,2013-06-25 09:59:00,